createdAt,value
2022-11-05T00:00:49.978Z,2.98
2022-11-05T00:03:36.149Z,2.95
2022-11-05T00:06:22.332Z,3.01
2022-11-05T00:09:16.151Z,3.06
2022-11-05T00:12:02.440Z,3.02
2022-11-05T00:14:48.726Z,3.06
2022-11-05T00:17:16.231Z,3.02
2022-11-05T00:19:43.709Z,3.05
2022-11-05T00:22:29.976Z,3.07
2022-11-05T00:25:16.129Z,3.15
2022-11-05T00:27:51.586Z,3.18
2022-11-05T00:30:21.698Z,3.20
2022-11-05T00:32:50.731Z,3.09
2022-11-05T00:35:20.635Z,3.08
2022-11-05T00:37:50.375Z,3.04
2022-11-05T00:40:18.340Z,3.03
2022-11-05T00:43:04.752Z,3.05
2022-11-05T00:45:32.283Z,3.10
2022-11-05T00:48:18.270Z,3.03
2022-11-05T00:50:46.132Z,2.99
2022-11-05T00:53:13.807Z,3.03
2022-11-05T00:55:44.918Z,3.12
2022-11-05T00:58:17.994Z,3.11
2022-11-05T01:00:50.408Z,3.08
2022-11-05T01:03:20.316Z,3.10
2022-11-05T01:05:53.367Z,3.12
2022-11-05T01:08:22.630Z,3.08
2022-11-05T01:10:56.126Z,3.14
2022-11-05T01:13:29.878Z,3.09
2022-11-05T01:15:57.675Z,3.08
2022-11-05T01:18:25.462Z,3.03
2022-11-05T01:20:53.209Z,3.01
2022-11-05T01:23:21.294Z,3.00
2022-11-05T01:25:48.936Z,2.98
2022-11-05T01:28:16.408Z,2.98
2022-11-05T01:30:44.088Z,2.92
2022-11-05T01:33:11.829Z,2.93
2022-11-05T01:35:39.961Z,2.88
2022-11-05T01:38:07.387Z,2.95
2022-11-05T01:40:34.819Z,2.92
2022-11-05T01:43:02.258Z,2.87
2022-11-05T01:45:29.691Z,2.83
2022-11-05T01:48:03.683Z,2.88
2022-11-05T01:50:43.410Z,2.90
2022-11-05T01:53:28.967Z,2.95
2022-11-05T01:56:08.364Z,2.96
2022-11-05T01:58:48.928Z,2.99
2022-11-05T02:01:17.389Z,2.90
2022-11-05T02:03:46.057Z,2.92
2022-11-05T02:06:16.699Z,2.92
2022-11-05T02:08:59.093Z,2.93
2022-11-05T02:11:26.787Z,2.91
2022-11-05T02:13:54.271Z,2.88
2022-11-05T02:16:48.866Z,3.00
2022-11-05T02:20:07.310Z,3.06
2022-11-05T02:22:49.632Z,2.99
2022-11-05T02:25:26.026Z,2.97
2022-11-05T02:28:37.643Z,3.02
2022-11-05T02:31:12.354Z,2.93
2022-11-05T02:34:04.509Z,2.89
2022-11-05T02:36:56.336Z,2.95
2022-11-05T02:39:42.614Z,2.87
2022-11-05T02:42:35.052Z,2.82
2022-11-05T02:45:05.454Z,2.78
2022-11-05T02:47:47.334Z,2.87
2022-11-05T02:50:23.643Z,2.82
2022-11-05T02:52:57.021Z,2.83
2022-11-05T02:55:37.593Z,2.85
2022-11-05T02:58:05.956Z,2.83
2022-11-05T03:00:52.471Z,2.89
2022-11-05T03:03:29.115Z,2.83
2022-11-05T03:06:14.506Z,2.84
2022-11-05T03:09:14.260Z,2.90
2022-11-05T03:12:01.889Z,2.94
2022-11-05T03:14:51.607Z,2.89
2022-11-05T03:17:29.710Z,2.88
2022-11-05T03:20:02.139Z,2.84
2022-11-05T03:22:37.109Z,2.78
2022-11-05T03:25:11.089Z,2.79
2022-11-05T03:27:45.566Z,2.82
2022-11-05T03:30:16.381Z,2.77
2022-11-05T03:32:48.874Z,2.76
2022-11-05T03:35:46.111Z,2.93
2022-11-05T03:38:20.500Z,2.85
2022-11-05T03:40:51.862Z,2.86
2022-11-05T03:43:23.517Z,2.87
2022-11-05T03:45:57.318Z,2.85
2022-11-05T03:48:29.588Z,2.81
2022-11-05T03:51:08.177Z,2.85
2022-11-05T03:53:43.794Z,2.82
2022-11-05T03:56:18.271Z,2.80
2022-11-05T03:58:46.726Z,2.84
2022-11-05T04:01:14.890Z,2.77
2022-11-05T04:03:42.472Z,2.85
2022-11-05T04:06:29.271Z,2.79
2022-11-05T04:09:15.405Z,2.82
2022-11-05T04:12:01.634Z,2.85
2022-11-05T04:14:30.479Z,2.85
2022-11-05T04:17:07.353Z,2.88
2022-11-05T04:20:03.469Z,2.89
2022-11-05T04:22:53.322Z,2.92
2022-11-05T04:25:21.796Z,2.90
2022-11-05T04:27:49.358Z,2.86
2022-11-05T04:30:18.804Z,2.84
2022-11-05T04:33:21.623Z,2.95
2022-11-05T04:35:49.226Z,2.82
2022-11-05T04:38:18.673Z,2.81
2022-11-05T04:40:47.803Z,2.78
2022-11-05T04:43:18.111Z,2.81
2022-11-05T04:45:46.263Z,2.78
2022-11-05T04:48:13.742Z,2.75
2022-11-05T04:50:41.183Z,2.77
2022-11-05T04:53:08.831Z,2.79
2022-11-05T04:55:36.570Z,2.76
2022-11-05T04:58:03.978Z,2.78
2022-11-05T05:00:31.465Z,2.77
2022-11-05T05:02:59.028Z,2.81
2022-11-05T05:05:26.582Z,2.79
2022-11-05T05:07:54.136Z,2.77
2022-11-05T05:10:21.560Z,2.75
2022-11-05T05:12:48.991Z,2.73
2022-11-05T05:15:16.533Z,2.74
2022-11-05T05:17:43.966Z,2.74
2022-11-05T05:20:30.185Z,2.81
2022-11-05T05:22:57.635Z,2.85
2022-11-05T05:25:25.542Z,2.84
2022-11-05T05:27:52.951Z,2.90
2022-11-05T05:30:20.374Z,2.86
2022-11-05T05:32:47.827Z,2.90
2022-11-05T05:35:15.824Z,2.93
2022-11-05T05:37:44.434Z,2.92
2022-11-05T05:40:12.003Z,2.89
2022-11-05T05:42:43.200Z,2.91
2022-11-05T05:45:12.723Z,2.94
2022-11-05T05:47:40.258Z,2.97
2022-11-05T05:50:07.953Z,2.98
2022-11-05T05:52:35.365Z,2.99
2022-11-05T05:55:02.831Z,3.01
2022-11-05T05:57:30.370Z,2.98
2022-11-05T05:59:57.815Z,2.98
2022-11-05T06:02:25.563Z,2.97
2022-11-05T06:04:53.060Z,2.99
2022-11-05T06:07:20.490Z,3.05
2022-11-05T06:09:47.919Z,3.08
2022-11-05T06:12:15.360Z,3.11
2022-11-05T06:14:42.812Z,3.13
2022-11-05T06:17:10.303Z,3.08
2022-11-05T06:19:37.751Z,3.14
2022-11-05T06:22:07.906Z,3.10
2022-11-05T06:24:35.408Z,3.10
2022-11-05T06:27:02.861Z,3.11
2022-11-05T06:29:30.402Z,3.14
2022-11-05T06:31:57.812Z,3.12
2022-11-05T06:34:25.306Z,3.19
2022-11-05T06:36:52.797Z,3.14
2022-11-05T06:39:20.234Z,3.09
2022-11-05T06:44:35.100Z,3.15
2022-11-05T06:47:02.586Z,3.16
2022-11-05T06:49:30.005Z,3.17
2022-11-05T06:51:58.638Z,3.18
2022-11-05T06:54:26.042Z,3.18
2022-11-05T06:56:53.473Z,3.17
2022-11-05T06:59:21.144Z,3.13
2022-11-05T07:01:48.684Z,3.20
2022-11-05T07:04:16.383Z,3.20
2022-11-05T07:06:43.846Z,3.24
2022-11-05T07:09:13.674Z,3.29
2022-11-05T07:11:41.253Z,3.37
2022-11-05T07:14:08.714Z,3.40
2022-11-05T07:16:36.200Z,3.45
2022-11-05T07:19:04.045Z,3.46
2022-11-05T07:21:31.577Z,3.52
2022-11-05T07:23:58.984Z,3.57
2022-11-05T07:26:31.856Z,3.54
2022-11-05T07:29:01.991Z,3.61
2022-11-05T07:31:29.465Z,3.59
2022-11-05T07:33:56.981Z,3.61
2022-11-05T07:36:24.397Z,3.69
2022-11-05T07:38:54.925Z,3.67
2022-11-05T07:41:29.425Z,3.70
2022-11-05T07:43:56.910Z,3.67
2022-11-05T07:46:24.325Z,3.75
2022-11-05T07:48:51.847Z,3.71
2022-11-05T07:51:19.462Z,3.75
2022-11-05T07:53:48.337Z,3.76
2022-11-05T07:56:16.169Z,3.79
2022-11-05T07:58:43.627Z,3.81
2022-11-05T08:01:11.276Z,3.80
2022-11-05T08:03:38.914Z,3.82
2022-11-05T08:06:06.945Z,3.85
2022-11-05T08:08:34.868Z,3.84
2022-11-05T08:11:04.329Z,3.85
2022-11-05T08:13:31.857Z,3.85
2022-11-05T08:16:00.199Z,3.87
2022-11-05T08:18:32.146Z,3.89
2022-11-05T08:21:01.641Z,3.93
2022-11-05T08:23:31.255Z,3.94
2022-11-05T08:25:59.333Z,4.01
2022-11-05T08:28:27.101Z,4.05
2022-11-05T08:30:56.606Z,4.04
2022-11-05T08:33:25.368Z,4.07
2022-11-05T08:35:52.851Z,4.09
2022-11-05T08:38:20.875Z,4.03
2022-11-05T08:40:58.398Z,4.13
2022-11-05T08:43:26.342Z,4.10
2022-11-05T08:45:55.120Z,4.11
2022-11-05T08:48:22.717Z,4.10
2022-11-05T08:50:50.731Z,4.12
2022-11-05T08:53:18.545Z,4.11
2022-11-05T08:55:47.798Z,4.09
2022-11-05T08:58:17.229Z,4.05
2022-11-05T09:00:47.935Z,4.08
2022-11-05T09:03:16.429Z,4.10
2022-11-05T09:05:44.427Z,4.12
2022-11-05T09:08:17.084Z,4.11
2022-11-05T09:10:49.951Z,4.05
2022-11-05T09:13:19.851Z,4.04
2022-11-05T09:15:52.395Z,4.06
2022-11-05T09:18:20.572Z,4.07
2022-11-05T09:20:48.162Z,4.10
2022-11-05T09:23:16.290Z,4.09
2022-11-05T09:25:44.631Z,4.05
2022-11-05T09:28:17.032Z,4.09
2022-11-05T09:30:47.332Z,4.07
2022-11-05T09:33:16.098Z,4.08
2022-11-05T09:35:46.896Z,4.07
2022-11-05T09:38:14.900Z,4.14
2022-11-05T09:41:08.770Z,4.28
2022-11-05T09:43:50.489Z,4.25
2022-11-05T09:46:24.564Z,4.21
2022-11-05T09:48:57.624Z,4.21
2022-11-05T09:51:25.200Z,4.16
2022-11-05T09:53:53.880Z,4.20
2022-11-05T09:56:25.218Z,4.22
2022-11-05T09:59:01.506Z,4.23
2022-11-05T10:01:34.009Z,4.21
2022-11-05T10:04:06.877Z,4.20
2022-11-05T10:06:35.718Z,4.19
2022-11-05T10:09:12.244Z,4.25
2022-11-05T10:11:46.907Z,4.29
2022-11-05T10:14:20.188Z,4.26
2022-11-05T10:17:00.348Z,4.36
2022-11-05T10:19:43.456Z,4.31
2022-11-05T10:22:16.262Z,4.23
2022-11-05T10:24:47.227Z,4.21
2022-11-05T10:27:30.431Z,4.25
2022-11-05T10:29:58.386Z,4.21
2022-11-05T10:32:40.163Z,4.19
2022-11-05T10:35:12.215Z,4.11
2022-11-05T10:37:41.365Z,4.12
2022-11-05T10:40:22.658Z,4.11
2022-11-05T10:42:59.411Z,4.14
2022-11-05T10:46:01.521Z,4.12
2022-11-05T10:48:44.002Z,4.11
2022-11-05T10:51:12.866Z,4.02
2022-11-05T10:53:50.504Z,4.06
2022-11-05T10:56:39.158Z,4.13
2022-11-05T10:59:24.440Z,4.10
2022-11-05T11:02:03.348Z,4.06
2022-11-05T11:04:37.474Z,4.03
2022-11-05T11:07:17.286Z,4.03
2022-11-05T11:09:48.772Z,4.06
2022-11-05T11:12:29.001Z,4.11
2022-11-05T11:15:15.542Z,4.10
2022-11-05T11:17:43.160Z,4.03
2022-11-05T11:20:31.751Z,4.17
2022-11-05T11:23:05.070Z,4.02
2022-11-05T11:25:42.215Z,4.07
2022-11-05T11:28:20.387Z,4.03
2022-11-05T11:30:55.826Z,4.01
2022-11-05T11:33:27.704Z,3.98
2022-11-05T11:35:55.751Z,3.94
2022-11-05T11:38:24.622Z,3.95
2022-11-05T11:41:19.983Z,4.00
2022-11-05T11:43:47.726Z,3.92
2022-11-05T11:46:19.318Z,3.90
2022-11-05T11:48:48.623Z,3.94
2022-11-05T11:51:40.555Z,3.95
2022-11-05T11:54:20.276Z,3.98
2022-11-05T11:56:48.976Z,3.95
2022-11-05T11:59:53.822Z,3.94
2022-11-05T12:02:33.839Z,4.01
2022-11-05T12:05:13.617Z,4.04
2022-11-05T12:07:52.971Z,3.94
2022-11-05T12:10:35.476Z,3.96
2022-11-05T12:13:21.380Z,3.99
2022-11-05T12:16:17.551Z,4.01
2022-11-05T12:19:09.466Z,3.92
2022-11-05T12:21:53.441Z,3.90
2022-11-05T12:24:54.754Z,3.89
2022-11-05T12:27:31.022Z,3.84
2022-11-05T12:30:04.255Z,3.82
2022-11-05T12:32:49.392Z,3.92
2022-11-05T12:36:04.743Z,3.96
2022-11-05T12:38:50.581Z,3.83
2022-11-05T12:41:33.714Z,3.82
2022-11-05T12:44:13.078Z,3.80
2022-11-05T12:46:49.633Z,3.75
2022-11-05T12:49:42.194Z,3.77
2022-11-05T12:52:24.301Z,3.79
2022-11-05T12:55:13.614Z,3.74
2022-11-05T12:57:45.610Z,3.65
2022-11-05T13:00:24.942Z,3.66
2022-11-05T13:03:22.162Z,3.64
2022-11-05T13:05:55.191Z,3.54
2022-11-05T13:08:48.765Z,3.63
2022-11-05T13:11:43.332Z,3.63
2022-11-05T13:14:16.000Z,3.52
2022-11-05T13:16:49.602Z,3.50
2022-11-05T13:19:52.642Z,3.54
2022-11-05T13:22:45.136Z,3.45
2022-11-05T13:25:29.094Z,3.51
2022-11-05T13:28:19.530Z,3.44
2022-11-05T13:30:52.892Z,3.43
2022-11-05T13:33:34.759Z,3.49
2022-11-05T13:36:39.247Z,3.48
2022-11-05T13:39:35.313Z,3.42
2022-11-05T13:42:37.599Z,3.51
2022-11-05T13:45:25.102Z,3.51
2022-11-05T13:48:16.722Z,3.46
2022-11-05T13:51:00.620Z,3.38
2022-11-05T13:53:49.321Z,3.42
2022-11-05T13:56:31.647Z,3.46
2022-11-05T13:59:23.898Z,3.43
2022-11-05T14:01:51.421Z,3.41
2022-11-05T14:04:32.938Z,3.48
2022-11-05T14:07:25.798Z,3.50
2022-11-05T14:10:22.054Z,3.52
2022-11-05T14:12:53.101Z,3.36
2022-11-05T14:15:25.770Z,3.37
2022-11-05T14:18:04.103Z,3.39
2022-11-05T14:20:31.538Z,3.38
2022-11-05T14:23:17.557Z,3.45
2022-11-05T14:25:45.237Z,3.34
2022-11-05T14:28:34.363Z,3.46
2022-11-05T14:31:03.316Z,3.32
2022-11-05T14:33:37.520Z,3.34
2022-11-05T14:36:20.359Z,3.44
2022-11-05T14:38:51.454Z,3.34
2022-11-05T14:41:20.970Z,3.34
2022-11-05T14:44:00.073Z,3.33
2022-11-05T14:47:07.191Z,3.47
2022-11-05T14:49:53.101Z,3.34
2022-11-05T14:52:21.351Z,3.33
2022-11-05T14:54:52.458Z,3.36
2022-11-05T14:57:55.476Z,3.49
2022-11-05T15:00:29.050Z,3.42
2022-11-05T15:03:01.548Z,3.40
2022-11-05T15:05:33.334Z,3.49
2022-11-05T15:08:24.892Z,3.60
2022-11-05T15:10:56.283Z,3.48
2022-11-05T15:13:40.578Z,3.52
2022-11-05T15:16:08.861Z,3.47
2022-11-05T15:18:45.711Z,3.48
2022-11-05T15:21:16.631Z,3.46
2022-11-05T15:23:46.845Z,3.49
2022-11-05T15:26:42.111Z,3.49
2022-11-05T15:29:22.298Z,3.48
2022-11-05T15:31:51.004Z,3.39
2022-11-05T15:34:28.936Z,3.42
2022-11-05T15:37:20.173Z,3.40
2022-11-05T15:39:50.369Z,3.36
2022-11-05T15:42:23.978Z,3.34
2022-11-05T15:44:59.790Z,3.36
2022-11-05T15:47:30.175Z,3.32
2022-11-05T15:50:03.957Z,3.34
2022-11-05T15:52:36.473Z,3.31
2022-11-05T15:55:20.040Z,3.37
2022-11-05T15:58:00.137Z,3.33
2022-11-05T16:00:30.357Z,3.31
2022-11-05T16:03:08.207Z,3.27
2022-11-05T16:05:43.419Z,3.29
2022-11-05T16:08:27.870Z,3.32
2022-11-05T16:11:00.768Z,3.25
2022-11-05T16:13:41.191Z,3.25
2022-11-05T16:16:14.995Z,3.19
2022-11-05T16:18:44.273Z,3.11
2022-11-05T16:21:22.798Z,3.15
2022-11-05T16:23:54.693Z,3.12
2022-11-05T16:27:02.268Z,3.14
2022-11-05T16:29:35.242Z,3.19
2022-11-05T16:32:17.708Z,3.12
2022-11-05T16:34:52.435Z,3.15
2022-11-05T16:37:23.983Z,3.13
2022-11-05T16:39:52.397Z,3.11
2022-11-05T16:42:22.831Z,3.12
2022-11-05T16:44:51.916Z,3.06
2022-11-05T16:47:19.993Z,2.98
2022-11-05T16:49:48.643Z,2.99
2022-11-05T16:52:16.512Z,2.93
2022-11-05T16:54:44.472Z,2.93
2022-11-05T16:57:28.058Z,2.96
2022-11-05T16:59:57.310Z,2.91
2022-11-05T17:02:26.003Z,2.97
2022-11-05T17:04:54.007Z,2.94
2022-11-05T17:07:21.670Z,2.97
2022-11-05T17:09:49.445Z,2.99
2022-11-05T17:12:16.972Z,3.00
2022-11-05T17:14:44.611Z,3.00
2022-11-05T17:17:12.176Z,3.03
2022-11-05T17:19:42.513Z,2.99
2022-11-05T17:22:10.470Z,2.95
2022-11-05T17:24:39.008Z,2.95
2022-11-05T17:27:06.598Z,2.94
2022-11-05T17:29:34.238Z,2.94
2022-11-05T17:32:01.803Z,2.97
2022-11-05T17:34:29.456Z,2.92
2022-11-05T17:36:59.605Z,2.94
2022-11-05T17:39:31.453Z,2.96
2022-11-05T17:41:59.531Z,2.97
2022-11-05T17:44:27.163Z,2.97
2022-11-05T17:46:54.812Z,2.91
2022-11-05T17:49:22.456Z,2.89
2022-11-05T17:51:51.503Z,2.87
2022-11-05T17:54:19.257Z,2.83
2022-11-05T17:56:49.855Z,2.85
2022-11-05T17:59:17.907Z,2.90
2022-11-05T18:01:46.228Z,2.88
2022-11-05T18:04:14.181Z,2.84
2022-11-05T18:06:42.353Z,2.78
2022-11-05T18:09:10.859Z,2.81
2022-11-05T18:11:40.034Z,2.81
2022-11-05T18:14:07.819Z,2.85
2022-11-05T18:16:35.883Z,2.83
2022-11-05T18:19:04.283Z,2.87
2022-11-05T18:21:31.848Z,2.88
2022-11-05T18:24:06.680Z,2.92
2022-11-05T18:26:35.262Z,2.97
2022-11-05T18:29:05.278Z,3.03
2022-11-05T18:31:32.919Z,3.11
2022-11-05T18:34:00.733Z,3.08
2022-11-05T18:36:30.683Z,3.04
2022-11-05T18:38:59.846Z,2.99
2022-11-05T18:41:27.824Z,2.99
2022-11-05T18:44:00.674Z,2.96
2022-11-05T18:46:56.665Z,2.95
2022-11-05T18:49:17.596Z,2.95
2022-11-05T18:51:45.257Z,3.03
2022-11-05T18:54:13.003Z,2.95
2022-11-05T18:56:45.470Z,2.99
2022-11-05T18:59:35.944Z,2.96
2022-11-05T19:02:01.959Z,2.93
2022-11-05T19:04:30.921Z,2.91
2022-11-05T19:07:04.156Z,2.86
2022-11-05T19:09:34.528Z,2.81
2022-11-05T19:12:03.144Z,2.76
2022-11-05T19:14:31.613Z,2.76
2022-11-05T19:17:00.339Z,2.67
2022-11-05T19:19:28.099Z,2.68
2022-11-05T19:21:55.857Z,2.67
2022-11-05T19:24:24.205Z,2.70
2022-11-05T19:26:52.035Z,2.66
2022-11-05T19:29:21.148Z,2.67
2022-11-05T19:31:48.781Z,2.63
2022-11-05T19:34:16.505Z,2.60
2022-11-05T19:36:44.145Z,2.62
2022-11-05T19:39:14.288Z,2.64
2022-11-05T19:41:42.273Z,2.60
2022-11-05T19:44:10.036Z,2.60
2022-11-05T19:46:37.911Z,2.59
2022-11-05T19:49:05.792Z,2.54
2022-11-05T19:51:34.036Z,2.62
2022-11-05T19:54:03.512Z,2.58
2022-11-05T19:56:33.877Z,2.51
2022-11-05T19:59:06.750Z,2.51
2022-11-05T20:01:35.479Z,2.51
2022-11-05T20:04:04.897Z,2.53
2022-11-05T20:06:38.992Z,2.54
2022-11-05T20:09:27.175Z,2.53
2022-11-05T20:11:56.639Z,2.53
2022-11-05T20:14:25.869Z,2.54
2022-11-05T20:16:53.978Z,2.58
2022-11-05T20:19:22.982Z,2.55
2022-11-05T20:21:50.749Z,2.55
2022-11-05T20:24:24.141Z,2.56
2022-11-05T20:26:54.828Z,2.51
2022-11-05T20:29:23.447Z,2.53
2022-11-05T20:31:52.690Z,2.55
2022-11-05T20:34:20.333Z,2.49
2022-11-05T20:36:47.895Z,2.44
2022-11-05T20:39:16.807Z,2.49
2022-11-05T20:41:44.559Z,2.48
2022-11-05T20:44:11.997Z,2.50
2022-11-05T20:46:40.078Z,2.54
2022-11-05T20:49:07.824Z,2.49
2022-11-05T20:51:35.457Z,2.51
2022-11-05T20:54:04.219Z,2.50
2022-11-05T20:56:35.454Z,2.55
2022-11-05T20:59:04.113Z,2.50
2022-11-05T21:01:33.286Z,2.55
2022-11-05T21:04:01.709Z,2.56
2022-11-05T21:06:29.385Z,2.53
2022-11-05T21:08:56.844Z,2.54
2022-11-05T21:11:24.421Z,2.56
2022-11-05T21:13:52.137Z,2.55
2022-11-05T21:16:20.498Z,2.53
2022-11-05T21:18:48.473Z,2.57
2022-11-05T21:21:20.141Z,2.59
2022-11-05T21:23:48.160Z,2.57
2022-11-05T21:26:16.994Z,2.57
2022-11-05T21:28:44.599Z,2.57
2022-11-05T21:31:12.367Z,2.50
2022-11-05T21:33:40.015Z,2.58
2022-11-05T21:36:10.283Z,2.59
2022-11-05T21:38:38.089Z,2.55
2022-11-05T21:41:06.462Z,2.54
2022-11-05T21:43:34.732Z,2.48
2022-11-05T21:46:03.840Z,2.47
2022-11-05T21:48:32.350Z,2.41
2022-11-05T21:51:18.986Z,2.39
2022-11-05T21:54:05.399Z,2.39
2022-11-05T21:56:52.165Z,2.37
2022-11-05T21:59:42.955Z,2.37
2022-11-05T22:02:12.695Z,2.33
2022-11-05T22:04:45.454Z,2.28
2022-11-05T22:07:15.783Z,2.34
2022-11-05T22:09:43.612Z,2.29
2022-11-05T22:12:11.314Z,2.30
2022-11-05T22:14:39.048Z,2.27
2022-11-05T22:17:09.415Z,2.28
2022-11-05T22:19:37.007Z,2.28
2022-11-05T22:22:06.350Z,2.25
2022-11-05T22:24:35.432Z,2.26
2022-11-05T22:27:06.083Z,2.25
2022-11-05T22:29:33.833Z,2.20
2022-11-05T22:32:01.498Z,2.21
2022-11-05T22:34:29.094Z,2.22
2022-11-05T22:36:56.784Z,2.21
2022-11-05T22:39:24.281Z,2.17
2022-11-05T22:41:55.981Z,2.22
2022-11-05T22:44:24.132Z,2.23
2022-11-05T22:46:52.573Z,2.23
2022-11-05T22:49:20.285Z,2.19
2022-11-05T22:51:47.906Z,2.21
2022-11-05T22:54:15.374Z,2.19
2022-11-05T22:56:43.401Z,2.20
2022-11-05T22:59:14.725Z,2.18
2022-11-05T23:01:44.370Z,2.18
2022-11-05T23:04:13.269Z,2.19
2022-11-05T23:06:59.520Z,2.19
2022-11-05T23:09:51.172Z,2.19
2022-11-05T23:12:27.857Z,2.24
2022-11-05T23:14:57.302Z,2.29
2022-11-05T23:17:43.631Z,2.19
2022-11-05T23:20:39.056Z,2.09
2022-11-05T23:23:28.863Z,2.06
2022-11-05T23:26:00.421Z,2.10
2022-11-05T23:28:27.935Z,2.09
2022-11-05T23:31:13.741Z,2.05
2022-11-05T23:33:41.319Z,2.07
2022-11-05T23:36:31.024Z,2.11
2022-11-05T23:38:58.528Z,2.00
2022-11-05T23:41:44.752Z,1.99
2022-11-05T23:44:30.484Z,2.04
2022-11-05T23:47:16.598Z,2.03
2022-11-05T23:49:44.029Z,2.04
2022-11-05T23:52:11.617Z,2.07
2022-11-05T23:54:39.044Z,2.07
2022-11-05T23:57:06.567Z,2.07
2022-11-05T23:59:34.004Z,2.14
